sensor_id;sensor_type;location;lat;lon;timestamp;pressure;altitude;pressure_sealevel;temperature;humidity
66560;BME280;53413;49.878;8.142;2023-07-13T00:01:29;99907.53;;;15.74;88.60
66560;BME280;53413;49.878;8.142;2023-07-13T00:03:56;99903.59;;;15.81;86.92
66560;BME280;53413;49.878;8.142;2023-07-13T00:06:21;99900.41;;;15.90;85.62
66560;BME280;53413;49.878;8.142;2023-07-13T00:08:47;99906.06;;;15.98;84.97
66560;BME280;53413;49.878;8.142;2023-07-13T00:11:14;99904.53;;;16.09;83.73
66560;BME280;53413;49.878;8.142;2023-07-13T00:13:40;99908.50;;;16.16;82.87
66560;BME280;53413;49.878;8.142;2023-07-13T00:16:07;99911.88;;;16.18;83.08
66560;BME280;53413;49.878;8.142;2023-07-13T00:18:32;99912.84;;;16.17;82.80
66560;BME280;53413;49.878;8.142;2023-07-13T00:20:58;99918.31;;;16.14;82.96
66560;BME280;53413;49.878;8.142;2023-07-13T00:23:31;99912.44;;;16.09;83.49
66560;BME280;53413;49.878;8.142;2023-07-13T00:25:59;99914.72;;;16.00;84.22
66560;BME280;53413;49.878;8.142;2023-07-13T00:28:24;99906.44;;;15.92;85.50
66560;BME280;53413;49.878;8.142;2023-07-13T00:30:50;99920.97;;;15.85;85.83
66560;BME280;53413;49.878;8.142;2023-07-13T00:33:15;99918.69;;;15.79;86.43
66560;BME280;53413;49.878;8.142;2023-07-13T00:35:40;99917.44;;;15.70;87.53
66560;BME280;53413;49.878;8.142;2023-07-13T00:38:09;99924.72;;;15.66;87.21
66560;BME280;53413;49.878;8.142;2023-07-13T00:40:34;99927.53;;;15.63;87.94
66560;BME280;53413;49.878;8.142;2023-07-13T00:42:59;99936.59;;;15.59;88.14
66560;BME280;53413;49.878;8.142;2023-07-13T00:47:50;99945.25;;;15.47;89.10
66560;BME280;53413;49.878;8.142;2023-07-13T00:50:16;99941.44;;;15.36;90.31
66560;BME280;53413;49.878;8.142;2023-07-13T00:52:46;99936.56;;;15.30;91.18
66560;BME280;53413;49.878;8.142;2023-07-13T00:55:13;99936.72;;;15.27;91.21
66560;BME280;53413;49.878;8.142;2023-07-13T00:57:40;99940.47;;;15.23;93.17
66560;BME280;53413;49.878;8.142;2023-07-13T01:00:07;99946.97;;;15.17;95.37
66560;BME280;53413;49.878;8.142;2023-07-13T01:02:35;99937.88;;;15.07;95.99
66560;BME280;53413;49.878;8.142;2023-07-13T01:05:09;99937.59;;;14.97;96.10
66560;BME280;53413;49.878;8.142;2023-07-13T01:07:35;99935.97;;;14.95;96.88
66560;BME280;53413;49.878;8.142;2023-07-13T01:10:02;99934.09;;;14.97;96.69
66560;BME280;53413;49.878;8.142;2023-07-13T01:12:27;99933.16;;;14.98;97.09
66560;BME280;53413;49.878;8.142;2023-07-13T01:14:59;99934.09;;;14.97;97.04
66560;BME280;53413;49.878;8.142;2023-07-13T01:17:26;99940.47;;;14.92;97.58
66560;BME280;53413;49.878;8.142;2023-07-13T01:19:51;99940.06;;;14.84;98.55
66560;BME280;53413;49.878;8.142;2023-07-13T01:22:18;99943.25;;;14.75;100.00
66560;BME280;53413;49.878;8.142;2023-07-13T01:24:46;99941.25;;;14.62;100.00
66560;BME280;53413;49.878;8.142;2023-07-13T01:27:14;99938.13;;;14.56;100.00
66560;BME280;53413;49.878;8.142;2023-07-13T01:29:42;99936.59;;;14.52;100.00
66560;BME280;53413;49.878;8.142;2023-07-13T01:32:09;99945.88;;;14.43;100.00
66560;BME280;53413;49.878;8.142;2023-07-13T01:34:35;99954.22;;;14.35;100.00
66560;BME280;53413;49.878;8.142;2023-07-13T01:37:02;99952.03;;;14.26;100.00
66560;BME280;53413;49.878;8.142;2023-07-13T01:39:28;99949.59;;;14.23;100.00
66560;BME280;53413;49.878;8.142;2023-07-13T01:41:53;99946.34;;;14.18;100.00
66560;BME280;53413;49.878;8.142;2023-07-13T01:44:18;99949.91;;;14.16;100.00
66560;BME280;53413;49.878;8.142;2023-07-13T01:46:44;99949.34;;;14.11;100.00
66560;BME280;53413;49.878;8.142;2023-07-13T01:49:09;99955.69;;;14.07;100.00
66560;BME280;53413;49.878;8.142;2023-07-13T01:51:34;99954.34;;;14.00;100.00
66560;BME280;53413;49.878;8.142;2023-07-13T01:54:00;99948.44;;;13.95;100.00
66560;BME280;53413;49.878;8.142;2023-07-13T01:56:25;99949.53;;;13.91;100.00
66560;BME280;53413;49.878;8.142;2023-07-13T01:58:51;99955.81;;;13.88;100.00
66560;BME280;53413;49.878;8.142;2023-07-13T02:01:17;99960.50;;;13.83;100.00
66560;BME280;53413;49.878;8.142;2023-07-13T02:03:42;99966.91;;;13.77;100.00
66560;BME280;53413;49.878;8.142;2023-07-13T02:06:08;99961.16;;;13.70;100.00
66560;BME280;53413;49.878;8.142;2023-07-13T02:08:33;99961.34;;;13.66;100.00
66560;BME280;53413;49.878;8.142;2023-07-13T02:10:59;99966.94;;;13.60;100.00
66560;BME280;53413;49.878;8.142;2023-07-13T02:13:25;99959.44;;;13.52;100.00
66560;BME280;53413;49.878;8.142;2023-07-13T02:15:51;99962.41;;;13.46;100.00
66560;BME280;53413;49.878;8.142;2023-07-13T02:18:16;99961.84;;;13.39;100.00
66560;BME280;53413;49.878;8.142;2023-07-13T02:20:42;99968.25;;;13.33;100.00
66560;BME280;53413;49.878;8.142;2023-07-13T02:23:08;99965.00;;;13.28;100.00
66560;BME280;53413;49.878;8.142;2023-07-13T02:25:33;99965.09;;;13.27;100.00
66560;BME280;53413;49.878;8.142;2023-07-13T02:27:59;99963.53;;;13.22;100.00
66560;BME280;53413;49.878;8.142;2023-07-13T02:30:24;99956.00;;;13.15;100.00
66560;BME280;53413;49.878;8.142;2023-07-13T02:32:50;99962.44;;;13.09;100.00
66560;BME280;53413;49.878;8.142;2023-07-13T02:35:15;99956.56;;;13.04;100.00
66560;BME280;53413;49.878;8.142;2023-07-13T02:37:41;99957.53;;;13.01;100.00
66560;BME280;53413;49.878;8.142;2023-07-13T02:40:06;99952.28;;;13.01;100.00
66560;BME280;53413;49.878;8.142;2023-07-13T02:42:34;99962.03;;;12.99;100.00
66560;BME280;53413;49.878;8.142;2023-07-13T02:44:59;99958.56;;;12.99;100.00
66560;BME280;53413;49.878;8.142;2023-07-13T02:47:24;99958.69;;;12.96;100.00
66560;BME280;53413;49.878;8.142;2023-07-13T02:49:50;99954.53;;;12.91;100.00
66560;BME280;53413;49.878;8.142;2023-07-13T02:52:15;99955.75;;;12.84;100.00
66560;BME280;53413;49.878;8.142;2023-07-13T02:54:40;99963.63;;;12.84;100.00
66560;BME280;53413;49.878;8.142;2023-07-13T02:57:06;99959.94;;;12.88;100.00
66560;BME280;53413;49.878;8.142;2023-07-13T02:59:31;99961.69;;;12.88;100.00
66560;BME280;53413;49.878;8.142;2023-07-13T03:01:57;99956.53;;;12.86;100.00
66560;BME280;53413;49.878;8.142;2023-07-13T03:04:22;99957.66;;;12.81;100.00
66560;BME280;53413;49.878;8.142;2023-07-13T03:06:48;99959.75;;;12.74;100.00
66560;BME280;53413;49.878;8.142;2023-07-13T03:09:13;99963.38;;;12.71;100.00
66560;BME280;53413;49.878;8.142;2023-07-13T03:11:38;99970.91;;;12.79;100.00
66560;BME280;53413;49.878;8.142;2023-07-13T03:14:04;99973.38;;;12.82;100.00
66560;BME280;53413;49.878;8.142;2023-07-13T03:16:29;99976.88;;;12.83;100.00
66560;BME280;53413;49.878;8.142;2023-07-13T03:18:55;99963.78;;;12.81;100.00
66560;BME280;53413;49.878;8.142;2023-07-13T03:21:20;99968.34;;;12.77;100.00
66560;BME280;53413;49.878;8.142;2023-07-13T03:23:46;99980.78;;;12.74;100.00
66560;BME280;53413;49.878;8.142;2023-07-13T03:26:14;99977.44;;;12.70;100.00
66560;BME280;53413;49.878;8.142;2023-07-13T03:28:41;99988.09;;;12.67;100.00
66560;BME280;53413;49.878;8.142;2023-07-13T03:31:10;99983.06;;;12.62;100.00
66560;BME280;53413;49.878;8.142;2023-07-13T03:33:36;99989.38;;;12.58;100.00
66560;BME280;53413;49.878;8.142;2023-07-13T03:36:03;99993.09;;;12.54;100.00
66560;BME280;53413;49.878;8.142;2023-07-13T03:38:29;99996.78;;;12.50;100.00
66560;BME280;53413;49.878;8.142;2023-07-13T03:40:55;100000.41;;;12.47;100.00
66560;BME280;53413;49.878;8.142;2023-07-13T03:43:20;100006.66;;;12.45;100.00
66560;BME280;53413;49.878;8.142;2023-07-13T03:45:46;99998.00;;;12.43;100.00
66560;BME280;53413;49.878;8.142;2023-07-13T03:48:11;100010.22;;;12.44;100.00
66560;BME280;53413;49.878;8.142;2023-07-13T03:50:37;100007.50;;;12.45;100.00
66560;BME280;53413;49.878;8.142;2023-07-13T03:53:03;100002.19;;;12.47;100.00
66560;BME280;53413;49.878;8.142;2023-07-13T03:55:29;100019.44;;;12.53;100.00
66560;BME280;53413;49.878;8.142;2023-07-13T03:57:59;100014.97;;;12.55;100.00
66560;BME280;53413;49.878;8.142;2023-07-13T04:00:25;100023.56;;;12.58;100.00
66560;BME280;53413;49.878;8.142;2023-07-13T04:02:50;100022.41;;;12.64;100.00
66560;BME280;53413;49.878;8.142;2023-07-13T04:05:16;100025.78;;;12.68;100.00
66560;BME280;53413;49.878;8.142;2023-07-13T04:07:41;100021.09;;;12.74;100.00
66560;BME280;53413;49.878;8.142;2023-07-13T04:10:07;100012.97;;;12.79;100.00
66560;BME280;53413;49.878;8.142;2023-07-13T04:12:32;100018.81;;;12.86;100.00
66560;BME280;53413;49.878;8.142;2023-07-13T04:14:58;100023.38;;;13.00;100.00
66560;BME280;53413;49.878;8.142;2023-07-13T04:17:23;100021.88;;;13.13;100.00
66560;BME280;53413;49.878;8.142;2023-07-13T04:19:48;100018.63;;;13.26;100.00
66560;BME280;53413;49.878;8.142;2023-07-13T04:22:14;100032.84;;;13.41;100.00
66560;BME280;53413;49.878;8.142;2023-07-13T04:24:39;100025.16;;;13.53;100.00
66560;BME280;53413;49.878;8.142;2023-07-13T04:27:06;100021.84;;;13.67;100.00
66560;BME280;53413;49.878;8.142;2023-07-13T04:29:32;100022.94;;;13.81;100.00
66560;BME280;53413;49.878;8.142;2023-07-13T04:31:57;100020.50;;;13.94;100.00
66560;BME280;53413;49.878;8.142;2023-07-13T04:34:22;100023.19;;;14.10;100.00
66560;BME280;53413;49.878;8.142;2023-07-13T04:36:49;100017.78;;;14.29;100.00
66560;BME280;53413;49.878;8.142;2023-07-13T04:39:15;100015.44;;;14.56;100.00
66560;BME280;53413;49.878;8.142;2023-07-13T04:41:40;100017.09;;;14.91;100.00
66560;BME280;53413;49.878;8.142;2023-07-13T04:44:05;100015.94;;;15.27;100.00
66560;BME280;53413;49.878;8.142;2023-07-13T04:46:31;100018.28;;;15.62;100.00
66560;BME280;53413;49.878;8.142;2023-07-13T04:48:56;100021.78;;;15.93;100.00
66560;BME280;53413;49.878;8.142;2023-07-13T04:51:23;100023.75;;;16.19;100.00
66560;BME280;53413;49.878;8.142;2023-07-13T04:53:48;100026.13;;;16.38;100.00
66560;BME280;53413;49.878;8.142;2023-07-13T04:56:14;100017.41;;;16.50;100.00
66560;BME280;53413;49.878;8.142;2023-07-13T04:58:39;100016.94;;;16.58;100.00
66560;BME280;53413;49.878;8.142;2023-07-13T05:01:05;100021.75;;;16.66;100.00
66560;BME280;53413;49.878;8.142;2023-07-13T05:03:31;100027.47;;;16.72;100.00
66560;BME280;53413;49.878;8.142;2023-07-13T05:05:59;100027.38;;;16.88;100.00
66560;BME280;53413;49.878;8.142;2023-07-13T05:08:25;100020.72;;;17.23;100.00
66560;BME280;53413;49.878;8.142;2023-07-13T05:10:51;100031.69;;;17.44;100.00
66560;BME280;53413;49.878;8.142;2023-07-13T05:13:16;100028.22;;;17.57;99.32
66560;BME280;53413;49.878;8.142;2023-07-13T05:15:41;100028.66;;;17.63;100.00
66560;BME280;53413;49.878;8.142;2023-07-13T05:18:07;100027.72;;;17.64;100.00
66560;BME280;53413;49.878;8.142;2023-07-13T05:20:32;100031.31;;;17.76;98.63
66560;BME280;53413;49.878;8.142;2023-07-13T05:22:57;100039.50;;;17.86;99.90
66560;BME280;53413;49.878;8.142;2023-07-13T05:25:23;100044.56;;;17.76;96.73
66560;BME280;53413;49.878;8.142;2023-07-13T05:27:48;100036.84;;;17.73;96.79
66560;BME280;53413;49.878;8.142;2023-07-13T05:30:14;100041.59;;;17.68;96.20
66560;BME280;53413;49.878;8.142;2023-07-13T05:32:40;100040.97;;;17.64;95.95
66560;BME280;53413;49.878;8.142;2023-07-13T05:35:06;100040.13;;;17.77;95.71
66560;BME280;53413;49.878;8.142;2023-07-13T05:37:31;100038.22;;;17.92;94.18
66560;BME280;53413;49.878;8.142;2023-07-13T05:39:56;100042.94;;;18.01;93.08
66560;BME280;53413;49.878;8.142;2023-07-13T05:42:22;100045.06;;;18.09;91.09
66560;BME280;53413;49.878;8.142;2023-07-13T05:44:47;100042.81;;;18.28;89.17
66560;BME280;53413;49.878;8.142;2023-07-13T05:47:12;100046.63;;;20.07;81.58
66560;BME280;53413;49.878;8.142;2023-07-13T05:49:40;100034.19;;;24.98;62.13
66560;BME280;53413;49.878;8.142;2023-07-13T05:52:26;100033.66;;;29.15;47.30
66560;BME280;53413;49.878;8.142;2023-07-13T05:54:51;100035.63;;;31.60;40.61
66560;BME280;53413;49.878;8.142;2023-07-13T05:57:16;100044.97;;;32.98;36.66
66560;BME280;53413;49.878;8.142;2023-07-13T05:59:42;100052.25;;;34.18;34.02
66560;BME280;53413;49.878;8.142;2023-07-13T06:02:09;100053.72;;;34.80;33.29
66560;BME280;53413;49.878;8.142;2023-07-13T06:04:46;100050.31;;;35.55;31.83
66560;BME280;53413;49.878;8.142;2023-07-13T06:07:17;100045.81;;;36.79;30.75
66560;BME280;53413;49.878;8.142;2023-07-13T06:09:43;100052.59;;;37.97;29.72
66560;BME280;53413;49.878;8.142;2023-07-13T06:12:08;100054.91;;;39.45;28.00
66560;BME280;53413;49.878;8.142;2023-07-13T06:14:34;100052.41;;;40.39;26.24
66560;BME280;53413;49.878;8.142;2023-07-13T06:16:59;100057.69;;;41.23;25.41
66560;BME280;53413;49.878;8.142;2023-07-13T06:19:25;100059.16;;;41.36;24.63
66560;BME280;53413;49.878;8.142;2023-07-13T06:21:50;100060.91;;;41.15;24.81
66560;BME280;53413;49.878;8.142;2023-07-13T06:24:15;100060.28;;;41.40;24.30
66560;BME280;53413;49.878;8.142;2023-07-13T06:26:41;100050.97;;;41.79;24.45
66560;BME280;53413;49.878;8.142;2023-07-13T06:29:06;100051.53;;;42.39;23.11
66560;BME280;53413;49.878;8.142;2023-07-13T06:31:32;100056.91;;;43.03;21.89
66560;BME280;53413;49.878;8.142;2023-07-13T06:33:57;100053.56;;;43.94;21.93
66560;BME280;53413;49.878;8.142;2023-07-13T06:36:22;100062.56;;;44.76;20.89
66560;BME280;53413;49.878;8.142;2023-07-13T06:38:48;100051.88;;;44.64;20.82
66560;BME280;53413;49.878;8.142;2023-07-13T06:41:14;100056.91;;;44.96;20.63
66560;BME280;53413;49.878;8.142;2023-07-13T06:43:39;100060.00;;;45.59;19.84
66560;BME280;53413;49.878;8.142;2023-07-13T06:46:04;100063.72;;;46.22;19.06
66560;BME280;53413;49.878;8.142;2023-07-13T06:48:30;100058.53;;;46.39;19.37
66560;BME280;53413;49.878;8.142;2023-07-13T06:50:56;100065.75;;;46.60;18.99
66560;BME280;53413;49.878;8.142;2023-07-13T06:53:22;100057.72;;;46.77;19.17
66560;BME280;53413;49.878;8.142;2023-07-13T06:55:48;100054.09;;;47.62;18.54
66560;BME280;53413;49.878;8.142;2023-07-13T06:58:15;100050.72;;;47.18;18.56
66560;BME280;53413;49.878;8.142;2023-07-13T07:00:41;100042.13;;;47.47;18.14
66560;BME280;53413;49.878;8.142;2023-07-13T07:03:06;100063.41;;;47.38;17.64
66560;BME280;53413;49.878;8.142;2023-07-13T07:05:31;100061.53;;;47.81;18.13
66560;BME280;53413;49.878;8.142;2023-07-13T07:07:58;100068.41;;;48.25;17.55
66560;BME280;53413;49.878;8.142;2023-07-13T07:10:23;100061.22;;;48.61;17.23
66560;BME280;53413;49.878;8.142;2023-07-13T07:12:49;100073.16;;;48.61;16.82
66560;BME280;53413;49.878;8.142;2023-07-13T07:15:14;100074.41;;;48.55;17.35
66560;BME280;53413;49.878;8.142;2023-07-13T07:17:40;100075.22;;;48.33;17.00
66560;BME280;53413;49.878;8.142;2023-07-13T07:20:06;100067.03;;;49.10;16.50
66560;BME280;53413;49.878;8.142;2023-07-13T07:22:32;100077.97;;;48.19;16.77
66560;BME280;53413;49.878;8.142;2023-07-13T07:24:57;100075.41;;;48.73;16.67
66560;BME280;53413;49.878;8.142;2023-07-13T07:27:23;100082.31;;;49.75;15.91
66560;BME280;53413;49.878;8.142;2023-07-13T07:29:49;100078.13;;;49.96;16.08
66560;BME280;53413;49.878;8.142;2023-07-13T07:32:15;100079.03;;;50.22;15.65
66560;BME280;53413;49.878;8.142;2023-07-13T07:34:40;100077.91;;;50.41;15.93
66560;BME280;53413;49.878;8.142;2023-07-13T07:37:05;100084.34;;;50.50;15.80
66560;BME280;53413;49.878;8.142;2023-07-13T07:39:31;100075.69;;;49.63;16.25
66560;BME280;53413;49.878;8.142;2023-07-13T07:41:56;100086.97;;;49.03;16.06
66560;BME280;53413;49.878;8.142;2023-07-13T07:44:22;100074.88;;;49.08;16.79
66560;BME280;53413;49.878;8.142;2023-07-13T07:46:47;100083.50;;;49.52;16.52
66560;BME280;53413;49.878;8.142;2023-07-13T07:49:13;100077.09;;;49.51;16.13
66560;BME280;53413;49.878;8.142;2023-07-13T07:51:39;100078.53;;;50.12;15.91
66560;BME280;53413;49.878;8.142;2023-07-13T07:54:05;100089.53;;;50.34;15.63
66560;BME280;53413;49.878;8.142;2023-07-13T07:56:30;100080.91;;;49.33;16.20
66560;BME280;53413;49.878;8.142;2023-07-13T07:58:56;100082.53;;;49.88;15.80
66560;BME280;53413;49.878;8.142;2023-07-13T08:01:22;100083.00;;;51.01;15.50
66560;BME280;53413;49.878;8.142;2023-07-13T08:03:47;100083.84;;;50.92;14.81
66560;BME280;53413;49.878;8.142;2023-07-13T08:06:13;100090.22;;;51.28;15.15
66560;BME280;53413;49.878;8.142;2023-07-13T08:08:38;100087.72;;;51.53;14.89
66560;BME280;53413;49.878;8.142;2023-07-13T08:11:05;100084.28;;;51.77;14.85
66560;BME280;53413;49.878;8.142;2023-07-13T08:13:32;100084.28;;;51.30;14.77
66560;BME280;53413;49.878;8.142;2023-07-13T08:15:57;100075.19;;;50.01;15.02
66560;BME280;53413;49.878;8.142;2023-07-13T08:18:24;100085.97;;;49.30;15.54
66560;BME280;53413;49.878;8.142;2023-07-13T08:20:49;100080.56;;;50.55;14.92
66560;BME280;53413;49.878;8.142;2023-07-13T08:23:14;100078.19;;;51.84;14.68
66560;BME280;53413;49.878;8.142;2023-07-13T08:25:42;100076.09;;;52.11;14.34
66560;BME280;53413;49.878;8.142;2023-07-13T08:28:07;100076.50;;;52.22;14.18
66560;BME280;53413;49.878;8.142;2023-07-13T08:30:32;100078.63;;;51.56;14.70
66560;BME280;53413;49.878;8.142;2023-07-13T08:32:58;100071.75;;;50.04;15.25
66560;BME280;53413;49.878;8.142;2023-07-13T08:35:23;100065.56;;;48.02;16.51
66560;BME280;53413;49.878;8.142;2023-07-13T08:37:50;100072.81;;;47.23;16.91
66560;BME280;53413;49.878;8.142;2023-07-13T08:40:16;100071.69;;;47.85;16.85
66560;BME280;53413;49.878;8.142;2023-07-13T08:42:45;100065.00;;;48.14;16.44
66560;BME280;53413;49.878;8.142;2023-07-13T08:45:19;100065.03;;;48.00;16.77
66560;BME280;53413;49.878;8.142;2023-07-13T08:48:08;100067.59;;;48.38;16.53
66560;BME280;53413;49.878;8.142;2023-07-13T08:50:42;100065.41;;;49.09;16.03
66560;BME280;53413;49.878;8.142;2023-07-13T08:53:14;100072.38;;;50.50;15.29
66560;BME280;53413;49.878;8.142;2023-07-13T08:55:40;100075.00;;;50.73;15.05
66560;BME280;53413;49.878;8.142;2023-07-13T08:58:11;100073.16;;;51.21;15.00
66560;BME280;53413;49.878;8.142;2023-07-13T09:03:18;100058.56;;;52.01;14.61
66560;BME280;53413;49.878;8.142;2023-07-13T09:05:50;100068.13;;;52.22;13.89
66560;BME280;53413;49.878;8.142;2023-07-13T09:08:51;100065.09;;;52.06;14.15
66560;BME280;53413;49.878;8.142;2023-07-13T09:11:29;100070.34;;;51.30;14.27
66560;BME280;53413;49.878;8.142;2023-07-13T09:16:35;100065.59;;;46.26;16.84
66560;BME280;53413;49.878;8.142;2023-07-13T09:19:05;100053.53;;;46.80;17.09
66560;BME280;53413;49.878;8.142;2023-07-13T09:21:35;100062.28;;;48.51;16.02
66560;BME280;53413;49.878;8.142;2023-07-13T09:24:34;100058.63;;;47.86;15.57
66560;BME280;53413;49.878;8.142;2023-07-13T09:27:08;100061.91;;;46.94;15.92
66560;BME280;53413;49.878;8.142;2023-07-13T09:29:41;100058.13;;;47.56;15.74
66560;BME280;53413;49.878;8.142;2023-07-13T09:32:09;100058.63;;;46.92;15.78
66560;BME280;53413;49.878;8.142;2023-07-13T09:34:37;100053.25;;;45.94;16.38
66560;BME280;53413;49.878;8.142;2023-07-13T09:37:03;100061.41;;;44.92;16.88
66560;BME280;53413;49.878;8.142;2023-07-13T09:39:33;100055.81;;;44.97;16.80
66560;BME280;53413;49.878;8.142;2023-07-13T09:42:15;100051.63;;;43.84;17.57
66560;BME280;53413;49.878;8.142;2023-07-13T09:47:24;100051.09;;;43.82;18.37
66560;BME280;53413;49.878;8.142;2023-07-13T09:50:00;100053.91;;;43.66;18.20
66560;BME280;53413;49.878;8.142;2023-07-13T09:52:27;100047.22;;;43.83;17.88
66560;BME280;53413;49.878;8.142;2023-07-13T09:54:54;100051.06;;;43.92;18.14
66560;BME280;53413;49.878;8.142;2023-07-13T09:57:25;100052.41;;;44.00;18.28
66560;BME280;53413;49.878;8.142;2023-07-13T09:59:52;100047.91;;;44.85;17.83
66560;BME280;53413;49.878;8.142;2023-07-13T10:02:30;100052.28;;;45.26;17.02
66560;BME280;53413;49.878;8.142;2023-07-13T10:05:00;100056.13;;;44.40;17.48
66560;BME280;53413;49.878;8.142;2023-07-13T10:07:26;100054.16;;;43.80;17.75
66560;BME280;53413;49.878;8.142;2023-07-13T10:09:53;100056.13;;;43.33;17.87
66560;BME280;53413;49.878;8.142;2023-07-13T10:12:19;100048.66;;;43.08;17.83
66560;BME280;53413;49.878;8.142;2023-07-13T10:14:46;100054.97;;;42.09;18.29
66560;BME280;53413;49.878;8.142;2023-07-13T10:17:14;100051.47;;;41.76;18.70
66560;BME280;53413;49.878;8.142;2023-07-13T10:19:41;100041.75;;;41.58;19.94
66560;BME280;53413;49.878;8.142;2023-07-13T10:22:26;100038.75;;;40.99;19.66
66560;BME280;53413;49.878;8.142;2023-07-13T10:24:53;100037.41;;;39.17;20.31
66560;BME280;53413;49.878;8.142;2023-07-13T10:27:23;100049.03;;;36.39;22.72
66560;BME280;53413;49.878;8.142;2023-07-13T10:32:33;100058.56;;;33.11;26.01
66560;BME280;53413;49.878;8.142;2023-07-13T10:34:59;100051.00;;;32.38;26.41
66560;BME280;53413;49.878;8.142;2023-07-13T10:37:29;100050.56;;;31.27;27.21
66560;BME280;53413;49.878;8.142;2023-07-13T10:39:57;100043.59;;;30.81;28.95
66560;BME280;53413;49.878;8.142;2023-07-13T10:42:32;100034.81;;;30.58;29.25
66560;BME280;53413;49.878;8.142;2023-07-13T10:44:58;100045.31;;;30.37;30.70
66560;BME280;53413;49.878;8.142;2023-07-13T10:47:24;100045.53;;;30.21;30.26
66560;BME280;53413;49.878;8.142;2023-07-13T10:49:54;100042.38;;;30.32;30.12
66560;BME280;53413;49.878;8.142;2023-07-13T10:52:48;100054.69;;;30.20;30.65
66560;BME280;53413;49.878;8.142;2023-07-13T10:58:21;100049.72;;;30.68;29.97
66560;BME280;53413;49.878;8.142;2023-07-13T11:00:56;100045.34;;;30.52;30.95
66560;BME280;53413;49.878;8.142;2023-07-13T11:03:26;100038.72;;;30.55;30.33
66560;BME280;53413;49.878;8.142;2023-07-13T11:06:05;100044.78;;;30.42;30.04
66560;BME280;53413;49.878;8.142;2023-07-13T11:08:38;100048.31;;;30.58;30.04
66560;BME280;53413;49.878;8.142;2023-07-13T11:13:57;100049.91;;;30.37;30.54
66560;BME280;53413;49.878;8.142;2023-07-13T11:21:30;100034.22;;;30.62;30.35
66560;BME280;53413;49.878;8.142;2023-07-13T11:24:17;100041.63;;;30.53;30.87
66560;BME280;53413;49.878;8.142;2023-07-13T11:31:43;100046.94;;;31.42;29.33
66560;BME280;53413;49.878;8.142;2023-07-13T11:34:13;100041.38;;;31.50;29.23
66560;BME280;53413;49.878;8.142;2023-07-13T11:36:43;100043.16;;;31.86;28.24
66560;BME280;53413;49.878;8.142;2023-07-13T11:39:24;100045.47;;;31.89;29.35
66560;BME280;53413;49.878;8.142;2023-07-13T11:41:53;100048.22;;;31.68;29.10
66560;BME280;53413;49.878;8.142;2023-07-13T11:44:24;100049.03;;;31.97;28.86
66560;BME280;53413;49.878;8.142;2023-07-13T11:46:55;100047.88;;;32.41;29.50
66560;BME280;53413;49.878;8.142;2023-07-13T11:49:26;100052.09;;;32.50;28.54
66560;BME280;53413;49.878;8.142;2023-07-13T11:51:56;100039.97;;;32.46;27.56
66560;BME280;53413;49.878;8.142;2023-07-13T11:54:30;100042.47;;;32.41;28.25
66560;BME280;53413;49.878;8.142;2023-07-13T11:56:58;100050.41;;;32.49;27.71
66560;BME280;53413;49.878;8.142;2023-07-13T11:59:26;100056.00;;;32.96;27.63
66560;BME280;53413;49.878;8.142;2023-07-13T12:01:53;100048.75;;;33.10;27.04
66560;BME280;53413;49.878;8.142;2023-07-13T12:04:29;100051.47;;;33.24;26.86
66560;BME280;53413;49.878;8.142;2023-07-13T12:07:17;100054.84;;;33.39;26.52
66560;BME280;53413;49.878;8.142;2023-07-13T12:09:43;100055.88;;;33.65;26.86
66560;BME280;53413;49.878;8.142;2023-07-13T12:12:12;100056.09;;;33.50;27.71
66560;BME280;53413;49.878;8.142;2023-07-13T12:14:38;100056.09;;;33.50;26.98
66560;BME280;53413;49.878;8.142;2023-07-13T12:17:10;100055.22;;;33.23;27.48
66560;BME280;53413;49.878;8.142;2023-07-13T12:19:37;100058.97;;;33.15;27.27
66560;BME280;53413;49.878;8.142;2023-07-13T12:22:02;100061.13;;;33.40;27.75
66560;BME280;53413;49.878;8.142;2023-07-13T12:24:28;100061.53;;;33.43;28.12
66560;BME280;53413;49.878;8.142;2023-07-13T12:27:02;100061.47;;;33.23;27.62
66560;BME280;53413;49.878;8.142;2023-07-13T12:29:29;100068.38;;;33.26;27.59
66560;BME280;53413;49.878;8.142;2023-07-13T12:31:54;100065.06;;;33.24;27.33
66560;BME280;53413;49.878;8.142;2023-07-13T12:34:23;100072.97;;;33.25;27.54
66560;BME280;53413;49.878;8.142;2023-07-13T12:39:22;100073.25;;;33.37;28.30
66560;BME280;53413;49.878;8.142;2023-07-13T12:41:50;100068.50;;;32.91;27.44
66560;BME280;53413;49.878;8.142;2023-07-13T12:44:21;100080.25;;;32.98;28.28
66560;BME280;53413;49.878;8.142;2023-07-13T12:47:03;100077.66;;;32.76;28.08
66560;BME280;53413;49.878;8.142;2023-07-13T12:49:32;100071.47;;;32.47;27.83
66560;BME280;53413;49.878;8.142;2023-07-13T12:52:02;100081.69;;;32.45;27.59
66560;BME280;53413;49.878;8.142;2023-07-13T12:54:29;100075.84;;;32.13;28.55
66560;BME280;53413;49.878;8.142;2023-07-13T12:56:57;100080.69;;;31.89;28.68
66560;BME280;53413;49.878;8.142;2023-07-13T12:59:25;100078.66;;;31.48;29.20
66560;BME280;53413;49.878;8.142;2023-07-13T13:01:53;100076.94;;;31.04;30.16
66560;BME280;53413;49.878;8.142;2023-07-13T13:04:19;100077.38;;;30.85;30.32
66560;BME280;53413;49.878;8.142;2023-07-13T13:06:47;100077.38;;;30.85;30.18
66560;BME280;53413;49.878;8.142;2023-07-13T13:09:15;100082.69;;;30.79;29.96
66560;BME280;53413;49.878;8.142;2023-07-13T13:11:40;100078.91;;;30.73;30.21
66560;BME280;53413;49.878;8.142;2023-07-13T13:14:07;100079.25;;;30.85;30.13
66560;BME280;53413;49.878;8.142;2023-07-13T13:16:35;100078.34;;;31.14;30.64
66560;BME280;53413;49.878;8.142;2023-07-13T13:19:13;100079.56;;;31.33;30.18
66560;BME280;53413;49.878;8.142;2023-07-13T13:21:39;100068.69;;;31.48;29.89
66560;BME280;53413;49.878;8.142;2023-07-13T13:24:16;100077.00;;;31.69;30.43